sensor_id;sensor_type;location;lat;lon;timestamp;pressure;altitude;pressure_sealevel;temperature;humidity
9189;BME280;34313;50.780;6.084;2023-08-31T00:00:29;98843.38;;;12.82;100.00
9189;BME280;34313;50.780;6.084;2023-08-31T00:02:54;98851.06;;;12.85;100.00
9189;BME280;34313;50.780;6.084;2023-08-31T00:05:20;98849.50;;;12.83;100.00
9189;BME280;34313;50.780;6.084;2023-08-31T00:07:45;98851.91;;;12.75;100.00
9189;BME280;34313;50.780;6.084;2023-08-31T00:10:11;98838.09;;;12.71;100.00
9189;BME280;34313;50.780;6.084;2023-08-31T00:12:37;98834.69;;;12.69;100.00
9189;BME280;34313;50.780;6.084;2023-08-31T00:15:03;98848.91;;;12.68;100.00
9189;BME280;34313;50.780;6.084;2023-08-31T00:17:30;98845.88;;;12.61;100.00
9189;BME280;34313;50.780;6.084;2023-08-31T00:19:55;98843.94;;;12.63;100.00
9189;BME280;34313;50.780;6.084;2023-08-31T00:22:21;98839.88;;;12.59;100.00
9189;BME280;34313;50.780;6.084;2023-08-31T00:24:46;98843.34;;;12.60;100.00
9189;BME280;34313;50.780;6.084;2023-08-31T00:27:11;98849.56;;;12.47;100.00
9189;BME280;34313;50.780;6.084;2023-08-31T00:29:39;98844.53;;;12.44;100.00
9189;BME280;34313;50.780;6.084;2023-08-31T00:32:05;98847.97;;;12.34;100.00
9189;BME280;34313;50.780;6.084;2023-08-31T00:34:31;98847.84;;;12.24;100.00
9189;BME280;34313;50.780;6.084;2023-08-31T00:36:56;98846.16;;;12.12;100.00
9189;BME280;34313;50.780;6.084;2023-08-31T00:39:21;98840.81;;;12.00;100.00
9189;BME280;34313;50.780;6.084;2023-08-31T00:41:47;98842.78;;;11.85;100.00
9189;BME280;34313;50.780;6.084;2023-08-31T00:44:12;98837.50;;;11.85;100.00
9189;BME280;34313;50.780;6.084;2023-08-31T00:46:40;98837.72;;;11.82;100.00
9189;BME280;34313;50.780;6.084;2023-08-31T00:49:06;98844.94;;;11.67;100.00
9189;BME280;34313;50.780;6.084;2023-08-31T00:51:32;98839.91;;;11.64;100.00
9189;BME280;34313;50.780;6.084;2023-08-31T00:53:58;98833.84;;;11.51;100.00
9189;BME280;34313;50.780;6.084;2023-08-31T00:56:24;98848.88;;;11.62;100.00
9189;BME280;34313;50.780;6.084;2023-08-31T00:58:49;98844.41;;;11.51;100.00
9189;BME280;34313;50.780;6.084;2023-08-31T01:01:24;98850.13;;;11.45;100.00
9189;BME280;34313;50.780;6.084;2023-08-31T01:04:06;98847.09;;;11.38;100.00
9189;BME280;34313;50.780;6.084;2023-08-31T01:09:35;98841.50;;;11.30;100.00
9189;BME280;34313;50.780;6.084;2023-08-31T01:12:09;98843.75;;;11.23;100.00
9189;BME280;34313;50.780;6.084;2023-08-31T01:14:45;98840.69;;;11.16;100.00
9189;BME280;34313;50.780;6.084;2023-08-31T01:17:14;98846.38;;;11.23;100.00
9189;BME280;34313;50.780;6.084;2023-08-31T01:19:54;98843.41;;;11.28;100.00
9189;BME280;34313;50.780;6.084;2023-08-31T01:22:51;98846.91;;;11.28;100.00
9189;BME280;34313;50.780;6.084;2023-08-31T01:25:20;98839.44;;;11.22;100.00
9189;BME280;34313;50.780;6.084;2023-08-31T01:27:46;98852.00;;;11.19;100.00
9189;BME280;34313;50.780;6.084;2023-08-31T01:30:12;98855.38;;;11.21;100.00
9189;BME280;34313;50.780;6.084;2023-08-31T01:32:37;98851.25;;;11.16;100.00
9189;BME280;34313;50.780;6.084;2023-08-31T01:35:13;98854.91;;;11.27;100.00
9189;BME280;34313;50.780;6.084;2023-08-31T01:37:50;98847.66;;;11.18;100.00
9189;BME280;34313;50.780;6.084;2023-08-31T01:40:23;98842.59;;;11.14;100.00
9189;BME280;34313;50.780;6.084;2023-08-31T01:42:58;98856.50;;;11.16;100.00
9189;BME280;34313;50.780;6.084;2023-08-31T01:45:24;98860.22;;;11.14;100.00
9189;BME280;34313;50.780;6.084;2023-08-31T01:47:55;98842.94;;;11.10;100.00
9189;BME280;34313;50.780;6.084;2023-08-31T01:50:21;98846.59;;;11.20;100.00
9189;BME280;34313;50.780;6.084;2023-08-31T01:52:47;98847.34;;;11.09;100.00
9189;BME280;34313;50.780;6.084;2023-08-31T01:55:15;98853.50;;;11.10;100.00
9189;BME280;34313;50.780;6.084;2023-08-31T01:57:41;98835.03;;;10.97;100.00
9189;BME280;34313;50.780;6.084;2023-08-31T02:00:08;98852.63;;;11.09;100.00
9189;BME280;34313;50.780;6.084;2023-08-31T02:02:34;98839.59;;;10.95;100.00
9189;BME280;34313;50.780;6.084;2023-08-31T02:05:00;98851.47;;;11.01;100.00
9189;BME280;34313;50.780;6.084;2023-08-31T02:07:27;98845.59;;;10.97;100.00
9189;BME280;34313;50.780;6.084;2023-08-31T02:09:52;98842.44;;;10.92;100.00
9189;BME280;34313;50.780;6.084;2023-08-31T02:12:17;98841.50;;;10.93;100.00
9189;BME280;34313;50.780;6.084;2023-08-31T02:14:43;98850.03;;;10.96;100.00
9189;BME280;34313;50.780;6.084;2023-08-31T02:17:08;98854.69;;;10.93;100.00
9189;BME280;34313;50.780;6.084;2023-08-31T02:19:34;98839.69;;;10.93;100.00
9189;BME280;34313;50.780;6.084;2023-08-31T02:21:59;98841.91;;;10.87;100.00
9189;BME280;34313;50.780;6.084;2023-08-31T02:24:24;98850.22;;;10.93;100.00
9189;BME280;34313;50.780;6.084;2023-08-31T02:26:50;98858.25;;;10.92;100.00
9189;BME280;34313;50.780;6.084;2023-08-31T02:29:15;98861.00;;;10.90;100.00
9189;BME280;34313;50.780;6.084;2023-08-31T02:31:40;98866.69;;;10.97;100.00
9189;BME280;34313;50.780;6.084;2023-08-31T02:34:07;98867.53;;;10.97;100.00
9189;BME280;34313;50.780;6.084;2023-08-31T02:36:32;98869.56;;;10.94;100.00
9189;BME280;34313;50.780;6.084;2023-08-31T02:38:57;98858.25;;;10.92;100.00
9189;BME280;34313;50.780;6.084;2023-08-31T02:41:23;98873.34;;;10.90;100.00
9189;BME280;34313;50.780;6.084;2023-08-31T02:43:52;98874.06;;;10.92;100.00
9189;BME280;34313;50.780;6.084;2023-08-31T02:46:17;98875.97;;;10.90;100.00
9189;BME280;34313;50.780;6.084;2023-08-31T02:48:43;98877.47;;;10.94;100.00
9189;BME280;34313;50.780;6.084;2023-08-31T02:51:09;98873.22;;;10.91;100.00
9189;BME280;34313;50.780;6.084;2023-08-31T02:53:34;98871.31;;;10.93;100.00
9189;BME280;34313;50.780;6.084;2023-08-31T02:56:00;98871.84;;;10.98;100.00
9189;BME280;34313;50.780;6.084;2023-08-31T02:58:25;98873.84;;;11.08;100.00
9189;BME280;34313;50.780;6.084;2023-08-31T03:00:50;98873.00;;;11.07;100.00
9189;BME280;34313;50.780;6.084;2023-08-31T03:03:16;98877.75;;;11.15;100.00
9189;BME280;34313;50.780;6.084;2023-08-31T03:05:41;98870.88;;;11.12;100.00
9189;BME280;34313;50.780;6.084;2023-08-31T03:08:07;98858.31;;;11.16;100.00
9189;BME280;34313;50.780;6.084;2023-08-31T03:10:32;98854.50;;;11.20;100.00
9189;BME280;34313;50.780;6.084;2023-08-31T03:12:58;98862.66;;;11.17;100.00
9189;BME280;34313;50.780;6.084;2023-08-31T03:15:23;98869.84;;;11.15;100.00
9189;BME280;34313;50.780;6.084;2023-08-31T03:17:48;98867.41;;;11.12;100.00
9189;BME280;34313;50.780;6.084;2023-08-31T03:20:14;98873.09;;;11.06;100.00
9189;BME280;34313;50.780;6.084;2023-08-31T03:22:39;98870.91;;;11.00;100.00
9189;BME280;34313;50.780;6.084;2023-08-31T03:25:04;98876.50;;;10.95;100.00
9189;BME280;34313;50.780;6.084;2023-08-31T03:27:30;98863.88;;;10.87;100.00
9189;BME280;34313;50.780;6.084;2023-08-31T03:29:55;98875.88;;;10.91;100.00
9189;BME280;34313;50.780;6.084;2023-08-31T03:32:20;98878.94;;;10.98;100.00
9189;BME280;34313;50.780;6.084;2023-08-31T03:34:46;98880.31;;;10.91;100.00
9189;BME280;34313;50.780;6.084;2023-08-31T03:37:12;98887.59;;;10.87;100.00
9189;BME280;34313;50.780;6.084;2023-08-31T03:39:37;98880.41;;;10.89;100.00
9189;BME280;34313;50.780;6.084;2023-08-31T03:42:03;98883.47;;;10.83;100.00
9189;BME280;34313;50.780;6.084;2023-08-31T03:44:28;98877.91;;;10.75;100.00
9189;BME280;34313;50.780;6.084;2023-08-31T03:46:54;98883.56;;;10.82;100.00
9189;BME280;34313;50.780;6.084;2023-08-31T03:49:19;98878.72;;;10.75;100.00
9189;BME280;34313;50.780;6.084;2023-08-31T03:51:44;98885.25;;;10.83;100.00
9189;BME280;34313;50.780;6.084;2023-08-31T03:54:10;98891.59;;;10.80;100.00
9189;BME280;34313;50.780;6.084;2023-08-31T03:56:38;98885.38;;;10.68;100.00
9189;BME280;34313;50.780;6.084;2023-08-31T03:59:03;98898.00;;;10.76;100.00
9189;BME280;34313;50.780;6.084;2023-08-31T04:01:29;98900.03;;;10.72;100.00
9189;BME280;34313;50.780;6.084;2023-08-31T04:03:55;98882.09;;;10.65;100.00
9189;BME280;34313;50.780;6.084;2023-08-31T04:06:21;98900.03;;;10.72;100.00
9189;BME280;34313;50.780;6.084;2023-08-31T04:08:46;98905.28;;;10.72;100.00
9189;BME280;34313;50.780;6.084;2023-08-31T04:11:11;98901.09;;;10.70;100.00
9189;BME280;34313;50.780;6.084;2023-08-31T04:13:37;98895.81;;;10.70;100.00
9189;BME280;34313;50.780;6.084;2023-08-31T04:16:02;98892.31;;;10.69;100.00
9189;BME280;34313;50.780;6.084;2023-08-31T04:18:28;98900.03;;;10.72;100.00
9189;BME280;34313;50.780;6.084;2023-08-31T04:20:54;98905.81;;;10.77;100.00
9189;BME280;34313;50.780;6.084;2023-08-31T04:23:20;98899.19;;;10.72;100.00
9189;BME280;34313;50.780;6.084;2023-08-31T04:25:46;98916.56;;;10.74;100.00
9189;BME280;34313;50.780;6.084;2023-08-31T04:28:12;98910.34;;;10.75;100.00
9189;BME280;34313;50.780;6.084;2023-08-31T04:30:39;98900.44;;;10.66;100.00
9189;BME280;34313;50.780;6.084;2023-08-31T04:33:06;98904.75;;;10.67;100.00
9189;BME280;34313;50.780;6.084;2023-08-31T04:35:32;98919.53;;;10.70;100.00
9189;BME280;34313;50.780;6.084;2023-08-31T04:37:57;98914.56;;;10.65;100.00
9189;BME280;34313;50.780;6.084;2023-08-31T04:40:23;98917.09;;;10.67;100.00
9189;BME280;34313;50.780;6.084;2023-08-31T04:42:49;98917.84;;;10.69;100.00
9189;BME280;34313;50.780;6.084;2023-08-31T04:45:14;98925.94;;;10.66;100.00
9189;BME280;34313;50.780;6.084;2023-08-31T04:47:40;98929.53;;;10.65;100.00
9189;BME280;34313;50.780;6.084;2023-08-31T04:50:06;98927.63;;;10.67;100.00
9189;BME280;34313;50.780;6.084;2023-08-31T04:52:32;98923.22;;;10.67;100.00
9189;BME280;34313;50.780;6.084;2023-08-31T04:54:57;98922.06;;;10.71;100.00
9189;BME280;34313;50.780;6.084;2023-08-31T04:57:22;98921.97;;;10.73;100.00
9189;BME280;34313;50.780;6.084;2023-08-31T04:59:51;98940.81;;;10.79;100.00
9189;BME280;34313;50.780;6.084;2023-08-31T05:02:17;98932.50;;;10.86;100.00
9189;BME280;34313;50.780;6.084;2023-08-31T05:04:45;98919.53;;;10.83;100.00
9189;BME280;34313;50.780;6.084;2023-08-31T05:07:10;98930.06;;;10.95;100.00
9189;BME280;34313;50.780;6.084;2023-08-31T05:09:35;98928.59;;;11.17;100.00
9189;BME280;34313;50.780;6.084;2023-08-31T05:12:01;98949.50;;;11.70;100.00
9189;BME280;34313;50.780;6.084;2023-08-31T05:14:28;98955.19;;;12.49;100.00
9189;BME280;34313;50.780;6.084;2023-08-31T05:16:53;98950.91;;;13.40;100.00
9189;BME280;34313;50.780;6.084;2023-08-31T05:19:19;98966.72;;;14.40;100.00
9189;BME280;34313;50.780;6.084;2023-08-31T05:21:44;98947.47;;;15.32;100.00
9189;BME280;34313;50.780;6.084;2023-08-31T05:24:10;98961.75;;;16.41;100.00
9189;BME280;34313;50.780;6.084;2023-08-31T05:26:36;98955.06;;;17.24;95.38
9189;BME280;34313;50.780;6.084;2023-08-31T05:29:01;98957.97;;;18.13;87.16
9189;BME280;34313;50.780;6.084;2023-08-31T05:31:29;98945.53;;;18.76;81.07
9189;BME280;34313;50.780;6.084;2023-08-31T05:33:54;98960.13;;;19.08;78.42
9189;BME280;34313;50.780;6.084;2023-08-31T05:36:20;98951.09;;;19.35;76.75
9189;BME280;34313;50.780;6.084;2023-08-31T05:38:45;98955.84;;;19.50;74.34
9189;BME280;34313;50.780;6.084;2023-08-31T05:41:11;98966.00;;;19.12;74.45
9189;BME280;34313;50.780;6.084;2023-08-31T05:43:36;98967.44;;;18.26;77.19
9189;BME280;34313;50.780;6.084;2023-08-31T05:46:02;98963.00;;;17.33;82.72
9189;BME280;34313;50.780;6.084;2023-08-31T05:48:28;98971.09;;;16.65;88.01
9189;BME280;34313;50.780;6.084;2023-08-31T05:50:54;98977.41;;;16.15;91.88
9189;BME280;34313;50.780;6.084;2023-08-31T05:53:20;98973.91;;;15.74;95.47
9189;BME280;34313;50.780;6.084;2023-08-31T05:55:45;98979.69;;;15.48;98.49
9189;BME280;34313;50.780;6.084;2023-08-31T05:58:10;98967.44;;;15.26;100.00
9189;BME280;34313;50.780;6.084;2023-08-31T06:00:36;98977.56;;;15.11;100.00
9189;BME280;34313;50.780;6.084;2023-08-31T06:03:01;98985.00;;;14.75;100.00
9189;BME280;34313;50.780;6.084;2023-08-31T06:05:29;98981.31;;;14.67;100.00
9189;BME280;34313;50.780;6.084;2023-08-31T06:07:56;98978.69;;;14.55;100.00
9189;BME280;34313;50.780;6.084;2023-08-31T06:10:22;98988.88;;;14.39;100.00
9189;BME280;34313;50.780;6.084;2023-08-31T06:12:48;98992.25;;;14.41;100.00
9189;BME280;34313;50.780;6.084;2023-08-31T06:15:14;99002.72;;;14.43;100.00
9189;BME280;34313;50.780;6.084;2023-08-31T06:17:43;98985.81;;;14.23;100.00
9189;BME280;34313;50.780;6.084;2023-08-31T06:20:09;99006.66;;;14.27;100.00
9189;BME280;34313;50.780;6.084;2023-08-31T06:22:35;99009.41;;;14.26;100.00
9189;BME280;34313;50.780;6.084;2023-08-31T06:25:00;99010.47;;;14.34;100.00
9189;BME280;34313;50.780;6.084;2023-08-31T06:27:26;98995.53;;;14.33;100.00
9189;BME280;34313;50.780;6.084;2023-08-31T06:29:52;99012.00;;;14.48;100.00
9189;BME280;34313;50.780;6.084;2023-08-31T06:32:17;99011.53;;;14.43;100.00
9189;BME280;34313;50.780;6.084;2023-08-31T06:34:46;99008.81;;;14.54;100.00
9189;BME280;34313;50.780;6.084;2023-08-31T06:37:11;99010.13;;;14.71;100.00
9189;BME280;34313;50.780;6.084;2023-08-31T06:39:37;99008.44;;;14.91;100.00
9189;BME280;34313;50.780;6.084;2023-08-31T06:42:03;99004.38;;;14.87;100.00
9189;BME280;34313;50.780;6.084;2023-08-31T06:44:28;99012.69;;;14.83;100.00
9189;BME280;34313;50.780;6.084;2023-08-31T06:46:55;99002.28;;;14.70;100.00
9189;BME280;34313;50.780;6.084;2023-08-31T06:49:22;99020.47;;;14.74;100.00
9189;BME280;34313;50.780;6.084;2023-08-31T06:51:47;99022.16;;;14.75;100.00
9189;BME280;34313;50.780;6.084;2023-08-31T06:54:13;99011.66;;;14.74;100.00
9189;BME280;34313;50.780;6.084;2023-08-31T06:56:38;99013.56;;;14.83;100.00
9189;BME280;34313;50.780;6.084;2023-08-31T06:59:04;99021.97;;;14.88;100.00
9189;BME280;34313;50.780;6.084;2023-08-31T07:01:31;99006.19;;;14.87;100.00
9189;BME280;34313;50.780;6.084;2023-08-31T07:03:58;99023.41;;;14.92;100.00
9189;BME280;34313;50.780;6.084;2023-08-31T07:06:23;99027.13;;;15.11;100.00
9189;BME280;34313;50.780;6.084;2023-08-31T07:08:49;99032.31;;;15.12;100.00
9189;BME280;34313;50.780;6.084;2023-08-31T07:11:15;99032.19;;;15.14;100.00
9189;BME280;34313;50.780;6.084;2023-08-31T07:13:41;99045.91;;;15.40;100.00
9189;BME280;34313;50.780;6.084;2023-08-31T07:16:17;99034.53;;;16.31;99.75
9189;BME280;34313;50.780;6.084;2023-08-31T07:18:51;99044.00;;;18.16;87.66
9189;BME280;34313;50.780;6.084;2023-08-31T07:21:17;99029.69;;;18.17;83.85
9189;BME280;34313;50.780;6.084;2023-08-31T07:23:43;99027.19;;;17.87;83.71
9189;BME280;34313;50.780;6.084;2023-08-31T07:26:11;99039.06;;;17.55;86.50
9189;BME280;34313;50.780;6.084;2023-08-31T07:28:36;99045.72;;;17.32;88.77
9189;BME280;34313;50.780;6.084;2023-08-31T07:31:07;99048.00;;;17.17;88.78
9189;BME280;34313;50.780;6.084;2023-08-31T07:33:34;99052.91;;;17.12;89.92
9189;BME280;34313;50.780;6.084;2023-08-31T07:36:00;99055.72;;;17.20;90.39
9189;BME280;34313;50.780;6.084;2023-08-31T07:38:27;99039.44;;;17.13;90.50
9189;BME280;34313;50.780;6.084;2023-08-31T07:40:53;99043.94;;;17.13;90.49
9189;BME280;34313;50.780;6.084;2023-08-31T07:43:18;99049.94;;;17.25;90.79
9189;BME280;34313;50.780;6.084;2023-08-31T07:45:44;99042.81;;;17.25;90.62
9189;BME280;34313;50.780;6.084;2023-08-31T07:48:09;99040.28;;;17.24;90.54
9189;BME280;34313;50.780;6.084;2023-08-31T07:50:39;99040.41;;;17.69;88.21
9189;BME280;34313;50.780;6.084;2023-08-31T07:53:05;99050.47;;;19.65;77.32
9189;BME280;34313;50.780;6.084;2023-08-31T07:55:33;99043.16;;;22.46;65.65
9189;BME280;34313;50.780;6.084;2023-08-31T07:58:01;99037.22;;;24.55;55.42
9189;BME280;34313;50.780;6.084;2023-08-31T08:00:27;99047.69;;;25.99;49.43
9189;BME280;34313;50.780;6.084;2023-08-31T08:02:58;99028.53;;;27.96;44.43
9189;BME280;34313;50.780;6.084;2023-08-31T08:05:24;99047.75;;;29.78;40.19
9189;BME280;34313;50.780;6.084;2023-08-31T08:07:50;99055.97;;;30.88;37.97
9189;BME280;34313;50.780;6.084;2023-08-31T08:10:15;99070.38;;;31.19;36.37
9189;BME280;34313;50.780;6.084;2023-08-31T08:12:42;99062.09;;;31.02;35.81
9189;BME280;34313;50.780;6.084;2023-08-31T08:15:11;99055.13;;;31.18;35.57
9189;BME280;34313;50.780;6.084;2023-08-31T08:17:37;99055.63;;;31.62;34.76
9189;BME280;34313;50.780;6.084;2023-08-31T08:20:02;99064.63;;;31.62;34.43
9189;BME280;34313;50.780;6.084;2023-08-31T08:22:28;99060.28;;;32.26;33.35
9189;BME280;34313;50.780;6.084;2023-08-31T08:24:54;99068.84;;;32.17;33.04
9189;BME280;34313;50.780;6.084;2023-08-31T08:27:19;99065.72;;;32.26;32.98
9189;BME280;34313;50.780;6.084;2023-08-31T08:29:45;99070.41;;;32.01;32.91
9189;BME280;34313;50.780;6.084;2023-08-31T08:32:12;99071.09;;;31.14;34.00
9189;BME280;34313;50.780;6.084;2023-08-31T08:34:38;99058.03;;;29.51;36.44
9189;BME280;34313;50.780;6.084;2023-08-31T08:37:06;99053.19;;;30.15;36.13
9189;BME280;34313;50.780;6.084;2023-08-31T08:39:32;99067.91;;;30.08;36.03
9189;BME280;34313;50.780;6.084;2023-08-31T08:41:59;99062.78;;;30.67;34.97
9189;BME280;34313;50.780;6.084;2023-08-31T08:44:31;99075.16;;;30.63;35.07
9189;BME280;34313;50.780;6.084;2023-08-31T08:47:02;99081.00;;;29.74;35.86
9189;BME280;34313;50.780;6.084;2023-08-31T08:49:30;99074.41;;;30.07;36.03
9189;BME280;34313;50.780;6.084;2023-08-31T08:51:56;99078.47;;;30.16;35.47
9189;BME280;34313;50.780;6.084;2023-08-31T08:54:22;99076.81;;;30.33;35.04
9189;BME280;34313;50.780;6.084;2023-08-31T08:56:47;99075.66;;;28.85;37.41
9189;BME280;34313;50.780;6.084;2023-08-31T08:59:13;99065.91;;;27.40;39.89
9189;BME280;34313;50.780;6.084;2023-08-31T09:01:39;99057.16;;;26.23;42.52
9189;BME280;34313;50.780;6.084;2023-08-31T09:04:09;99089.94;;;25.50;44.58
9189;BME280;34313;50.780;6.084;2023-08-31T09:06:34;99092.22;;;25.25;45.49
9189;BME280;34313;50.780;6.084;2023-08-31T09:09:00;99093.44;;;24.79;47.53
9189;BME280;34313;50.780;6.084;2023-08-31T09:11:26;99087.22;;;25.50;46.68
9189;BME280;34313;50.780;6.084;2023-08-31T09:13:52;99087.44;;;25.83;45.87
9189;BME280;34313;50.780;6.084;2023-08-31T09:16:23;99087.38;;;25.98;45.70
9189;BME280;34313;50.780;6.084;2023-08-31T09:18:50;99084.09;;;26.58;45.27
9189;BME280;34313;50.780;6.084;2023-08-31T09:21:15;99083.38;;;27.04;43.89
9189;BME280;34313;50.780;6.084;2023-08-31T09:23:41;99090.19;;;26.67;44.73
9189;BME280;34313;50.780;6.084;2023-08-31T09:26:06;99090.94;;;26.60;45.12
9189;BME280;34313;50.780;6.084;2023-08-31T09:28:32;99086.34;;;26.48;46.25
9189;BME280;34313;50.780;6.084;2023-08-31T09:31:07;99090.31;;;26.03;46.15
9189;BME280;34313;50.780;6.084;2023-08-31T09:33:34;99092.09;;;25.61;47.09
9189;BME280;34313;50.780;6.084;2023-08-31T09:36:01;99089.31;;;25.83;47.20
9189;BME280;34313;50.780;6.084;2023-08-31T09:38:26;99092.13;;;25.68;47.20
9189;BME280;34313;50.780;6.084;2023-08-31T09:40:52;99090.44;;;25.10;49.02
9189;BME280;34313;50.780;6.084;2023-08-31T09:43:22;99080.56;;;25.46;47.98
9189;BME280;34313;50.780;6.084;2023-08-31T09:45:48;99084.66;;;25.35;48.47
9189;BME280;34313;50.780;6.084;2023-08-31T09:48:15;99086.31;;;25.99;46.44
9189;BME280;34313;50.780;6.084;2023-08-31T09:50:43;99077.50;;;25.56;46.40
9189;BME280;34313;50.780;6.084;2023-08-31T09:53:10;99083.06;;;24.61;48.98
9189;BME280;34313;50.780;6.084;2023-08-31T09:55:39;99080.25;;;24.18;50.85
9189;BME280;34313;50.780;6.084;2023-08-31T09:58:06;99069.22;;;24.13;51.85
9189;BME280;34313;50.780;6.084;2023-08-31T10:00:32;99077.53;;;23.73;52.60
9189;BME280;34313;50.780;6.084;2023-08-31T10:03:02;99072.09;;;23.82;53.52
9189;BME280;34313;50.780;6.084;2023-08-31T10:05:28;99073.00;;;23.74;53.27
9189;BME280;34313;50.780;6.084;2023-08-31T10:07:53;99070.56;;;24.75;50.00
9189;BME280;34313;50.780;6.084;2023-08-31T10:10:19;99075.72;;;24.91;49.58
9189;BME280;34313;50.780;6.084;2023-08-31T10:12:48;99071.53;;;24.52;50.55
9189;BME280;34313;50.780;6.084;2023-08-31T10:15:15;99074.22;;;24.01;51.39
9189;BME280;34313;50.780;6.084;2023-08-31T10:17:42;99085.50;;;23.37;53.61
9189;BME280;34313;50.780;6.084;2023-08-31T10:20:10;99089.56;;;22.63;56.06
9189;BME280;34313;50.780;6.084;2023-08-31T10:22:37;99083.88;;;22.19;58.67
9189;BME280;34313;50.780;6.084;2023-08-31T10:25:04;99079.06;;;22.45;58.78
9189;BME280;34313;50.780;6.084;2023-08-31T10:27:43;99074.22;;;22.72;57.67
9189;BME280;34313;50.780;6.084;2023-08-31T10:35:54;99084.78;;;22.97;55.25
9189;BME280;34313;50.780;6.084;2023-08-31T10:38:25;99084.34;;;22.31;56.64
9189;BME280;34313;50.780;6.084;2023-08-31T10:51:31;99070.38;;;23.36;53.27
9189;BME280;34313;50.780;6.084;2023-08-31T10:54:10;99059.84;;;23.79;50.68
9189;BME280;34313;50.780;6.084;2023-08-31T10:56:53;99071.34;;;24.03;50.18
9189;BME280;34313;50.780;6.084;2023-08-31T10:59:20;99074.72;;;23.90;49.96
9189;BME280;34313;50.780;6.084;2023-08-31T11:04:18;99078.06;;;23.92;50.68
9189;BME280;34313;50.780;6.084;2023-08-31T11:06:43;99085.84;;;23.87;50.73
9189;BME280;34313;50.780;6.084;2023-08-31T11:09:19;99072.72;;;23.69;51.08
9189;BME280;34313;50.780;6.084;2023-08-31T11:11:45;99076.78;;;23.65;51.09
9189;BME280;34313;50.780;6.084;2023-08-31T11:14:10;99085.22;;;23.47;51.55
9189;BME280;34313;50.780;6.084;2023-08-31T11:16:38;99090.53;;;23.55;51.80
9189;BME280;34313;50.780;6.084;2023-08-31T11:19:03;99079.88;;;23.00;53.45
9189;BME280;34313;50.780;6.084;2023-08-31T11:21:30;99086.19;;;22.61;54.64
9189;BME280;34313;50.780;6.084;2023-08-31T11:23:57;99079.09;;;22.69;55.26
9189;BME280;34313;50.780;6.084;2023-08-31T11:26:25;99079.22;;;22.98;54.72
9189;BME280;34313;50.780;6.084;2023-08-31T11:28:50;99077.22;;;23.38;52.00
9189;BME280;34313;50.780;6.084;2023-08-31T11:31:23;99078.44;;;23.51;51.55
9189;BME280;34313;50.780;6.084;2023-08-31T11:33:49;99069.09;;;23.47;50.65
9189;BME280;34313;50.780;6.084;2023-08-31T11:36:14;99084.78;;;23.20;51.26
9189;BME280;34313;50.780;6.084;2023-08-31T11:38:43;99076.13;;;22.87;51.62
9189;BME280;34313;50.780;6.084;2023-08-31T11:41:09;99082.84;;;22.59;52.41
9189;BME280;34313;50.780;6.084;2023-08-31T11:43:35;99076.00;;;22.57;53.19
9189;BME280;34313;50.780;6.084;2023-08-31T11:46:01;99078.88;;;22.47;53.56
9189;BME280;34313;50.780;6.084;2023-08-31T11:48:27;99083.00;;;22.58;53.68
9189;BME280;34313;50.780;6.084;2023-08-31T11:50:54;99079.66;;;22.56;52.77
9189;BME280;34313;50.780;6.084;2023-08-31T11:53:20;99072.66;;;22.78;52.85
9189;BME280;34313;50.780;6.084;2023-08-31T11:55:52;99073.47;;;23.01;52.58
9189;BME280;34313;50.780;6.084;2023-08-31T11:58:21;99074.44;;;23.32;52.10
9189;BME280;34313;50.780;6.084;2023-08-31T12:00:59;99071.41;;;23.50;51.32
9189;BME280;34313;50.780;6.084;2023-08-31T12:03:26;99068.09;;;23.01;50.72
9189;BME280;34313;50.780;6.084;2023-08-31T12:05:53;99078.81;;;22.63;52.04
9189;BME280;34313;50.780;6.084;2023-08-31T12:08:26;99080.84;;;22.30;52.73
9189;BME280;34313;50.780;6.084;2023-08-31T12:10:52;99078.97;;;22.22;53.35
9189;BME280;34313;50.780;6.084;2023-08-31T12:13:18;99081.50;;;22.32;52.85
9189;BME280;34313;50.780;6.084;2023-08-31T12:15:43;99076.84;;;22.49;52.57
9189;BME280;34313;50.780;6.084;2023-08-31T12:18:09;99074.25;;;22.64;52.47
9189;BME280;34313;50.780;6.084;2023-08-31T12:20:42;99080.16;;;22.59;52.70
9189;BME280;34313;50.780;6.084;2023-08-31T12:23:08;99087.38;;;22.59;52.08
9189;BME280;34313;50.780;6.084;2023-08-31T12:25:35;99089.31;;;22.42;52.68
9189;BME280;34313;50.780;6.084;2023-08-31T12:28:00;99086.69;;;22.34;53.54
9189;BME280;34313;50.780;6.084;2023-08-31T12:30:26;99092.66;;;22.04;54.57
9189;BME280;34313;50.780;6.084;2023-08-31T12:32:51;99084.19;;;22.16;55.34
9189;BME280;34313;50.780;6.084;2023-08-31T12:35:17;99083.50;;;22.61;54.09
9189;BME280;34313;50.780;6.084;2023-08-31T12:37:42;99081.88;;;23.07;52.85
9189;BME280;34313;50.780;6.084;2023-08-31T12:40:08;99074.16;;;23.27;52.26
9189;BME280;34313;50.780;6.084;2023-08-31T12:42:35;99067.59;;;23.06;51.11
9189;BME280;34313;50.780;6.084;2023-08-31T12:45:01;99069.38;;;23.14;51.60
9189;BME280;34313;50.780;6.084;2023-08-31T12:47:26;99080.91;;;23.22;50.90
9189;BME280;34313;50.780;6.084;2023-08-31T12:49:51;99066.03;;;22.89;50.82
9189;BME280;34313;50.780;6.084;2023-08-31T12:52:17;99063.22;;;22.82;51.81
9189;BME280;34313;50.780;6.084;2023-08-31T12:54:42;99067.25;;;23.09;50.91
9189;BME280;34313;50.780;6.084;2023-08-31T12:57:07;99067.38;;;23.31;50.09
9189;BME280;34313;50.780;6.084;2023-08-31T12:59:33;99063.44;;;23.71;48.48
9189;BME280;34313;50.780;6.084;2023-08-31T13:01:58;99065.00;;;23.51;47.84
9189;BME280;34313;50.780;6.084;2023-08-31T13:04:23;99062.00;;;23.31;46.84
9189;BME280;34313;50.780;6.084;2023-08-31T13:06:49;99067.28;;;23.24;47.25
9189;BME280;34313;50.780;6.084;2023-08-31T13:09:14;99061.69;;;23.64;46.49
9189;BME280;34313;50.780;6.084;2023-08-31T13:11:40;99063.91;;;23.75;45.70
9189;BME280;34313;50.780;6.084;2023-08-31T13:14:06;99064.03;;;23.82;44.47
9189;BME280;34313;50.780;6.084;2023-08-31T13:16:31;99053.94;;;23.46;45.05
9189;BME280;34313;50.780;6.084;2023-08-31T13:18:57;99062.72;;;23.25;46.35
9189;BME280;34313;50.780;6.084;2023-08-31T13:21:22;99064.75;;;23.08;47.20
9189;BME280;34313;50.780;6.084;2023-08-31T13:23:48;99060.97;;;22.71;48.32